createdAt,value
2022-12-01T06:56:24.491Z,16.27
2022-12-01T07:01:51.844Z,15.43
2022-12-01T07:04:24.693Z,14.88
2022-12-01T07:09:41.508Z,18.45
2022-12-01T07:12:12.018Z,16.83
2022-12-01T07:14:45.286Z,15.35
2022-12-01T07:17:16.446Z,16.98
2022-12-01T07:20:00.492Z,18.98
2022-12-01T07:22:37.462Z,19.67
2022-12-01T07:25:10.487Z,18.80
2022-12-01T07:27:45.932Z,17.40
2022-12-01T07:30:33.250Z,19.25
2022-12-01T07:33:06.204Z,20.55
2022-12-01T07:35:39.899Z,18.45
2022-12-01T07:38:12.141Z,18.63
2022-12-01T07:40:48.835Z,21.55
2022-12-01T07:43:39.409Z,20.52
2022-12-01T07:46:23.062Z,21.95
2022-12-01T07:49:03.890Z,23.15
2022-12-01T07:51:42.282Z,23.17
2022-12-01T07:54:21.596Z,20.80
2022-12-01T07:56:54.578Z,21.50
2022-12-01T08:00:17.663Z,19.45
2022-12-01T08:02:22.115Z,19.10
2022-12-01T08:05:47.741Z,20.05
2022-12-01T08:23:28.858Z,23.77
2022-12-01T08:25:57.712Z,21.52
2022-12-01T08:28:42.364Z,22.38
2022-12-01T08:34:42.332Z,18.40
2022-12-01T08:40:16.538Z,19.17
2022-12-01T08:42:57.558Z,20.30
2022-12-01T08:45:31.218Z,21.00
2022-12-01T08:48:02.490Z,21.13
2022-12-01T08:50:33.659Z,21.23
2022-12-01T08:53:12.511Z,20.98
2022-12-01T08:55:42.177Z,20.88
2022-12-01T08:58:20.143Z,20.65
2022-12-01T09:00:48.277Z,22.17
2022-12-01T09:03:24.799Z,22.23
2022-12-01T09:06:26.205Z,22.10
2022-12-01T09:08:45.796Z,21.25
2022-12-01T09:11:15.645Z,22.33
2022-12-01T09:13:52.974Z,22.30
2022-12-01T09:16:37.893Z,22.23
2022-12-01T09:19:23.687Z,22.08
2022-12-01T09:21:55.589Z,20.20
2022-12-01T09:24:29.954Z,20.52
2022-12-01T09:27:03.599Z,18.27
2022-12-01T09:29:51.048Z,19.95
2022-12-01T09:36:08.494Z,19.33
2022-12-01T09:38:42.833Z,16.73
2022-12-01T09:41:26.872Z,16.20
2022-12-01T09:44:20.370Z,16.80
2022-12-01T09:47:00.722Z,12.90
2022-12-01T09:49:45.765Z,11.43
2022-12-01T09:52:33.040Z,11.23
2022-12-01T09:55:02.544Z,10.48
2022-12-01T09:57:35.441Z,12.20
2022-12-01T10:00:09.470Z,11.55
2022-12-01T10:02:41.263Z,12.48
2022-12-01T10:05:16.348Z,12.77
2022-12-01T10:07:50.274Z,11.88
2022-12-01T10:10:24.499Z,13.20
2022-12-01T10:12:52.606Z,14.55
2022-12-01T10:15:32.223Z,13.85
2022-12-01T10:18:14.684Z,13.23
2022-12-01T10:20:50.948Z,14.00
2022-12-01T10:23:52.837Z,13.55
2022-12-01T10:26:28.488Z,14.35
2022-12-01T10:29:16.992Z,13.07
2022-12-01T10:31:55.136Z,12.32
2022-12-01T10:34:25.317Z,13.43
2022-12-01T10:36:53.392Z,13.05
2022-12-01T10:39:28.601Z,12.35
2022-12-01T10:42:03.203Z,13.82
2022-12-01T10:44:31.935Z,12.77
2022-12-01T10:47:01.078Z,13.43
2022-12-01T10:49:39.688Z,12.52
2022-12-01T10:52:08.344Z,14.85
2022-12-01T10:54:40.854Z,12.27
2022-12-01T10:57:17.615Z,12.65
2022-12-01T10:59:57.961Z,13.27
2022-12-01T11:02:32.306Z,13.48
2022-12-01T11:05:10.483Z,14.32
2022-12-01T11:07:50.578Z,13.85
2022-12-01T11:10:22.092Z,13.38
2022-12-01T11:13:21.049Z,13.52
2022-12-01T11:19:50.013Z,15.57
2022-12-01T11:22:26.819Z,13.15
2022-12-01T11:25:10.175Z,13.07
2022-12-01T11:27:50.505Z,13.68
2022-12-01T11:30:29.224Z,14.10
2022-12-01T11:33:00.759Z,14.18
2022-12-01T11:35:31.165Z,15.18
2022-12-01T11:40:55.151Z,14.25
2022-12-01T11:43:32.513Z,15.18
2022-12-01T11:46:10.710Z,15.30
2022-12-01T11:48:39.239Z,13.30
2022-12-01T11:51:12.256Z,13.23
2022-12-01T11:53:42.346Z,14.63
2022-12-01T11:56:36.985Z,13.88
2022-12-01T11:59:23.758Z,13.23
2022-12-01T12:02:13.045Z,13.40
2022-12-01T12:05:30.827Z,14.18
2022-12-01T12:08:21.363Z,14.77
2022-12-01T12:10:56.688Z,14.75
2022-12-01T12:14:05.161Z,14.70
2022-12-01T12:16:48.684Z,13.98
2022-12-01T12:20:09.797Z,14.60
2022-12-01T12:22:55.745Z,13.52
2022-12-01T12:25:48.274Z,15.43
2022-12-01T12:28:34.088Z,15.25
2022-12-01T12:34:29.256Z,13.85
2022-12-01T12:37:12.691Z,12.82
2022-12-01T12:40:00.645Z,18.77
2022-12-01T12:42:52.861Z,14.48
2022-12-01T12:45:37.163Z,13.65
2022-12-01T12:48:25.663Z,14.43
2022-12-01T12:51:03.625Z,14.30
2022-12-01T12:57:08.621Z,14.68
2022-12-01T12:59:49.148Z,14.40
2022-12-01T13:02:27.059Z,14.10
2022-12-01T13:05:02.907Z,14.18
2022-12-01T13:07:38.722Z,14.07
2022-12-01T13:10:22.946Z,14.23
2022-12-01T13:12:57.797Z,14.40
2022-12-01T13:15:27.452Z,13.98
2022-12-01T13:18:02.763Z,13.88
2022-12-01T13:20:32.288Z,14.77
2022-12-01T13:23:02.534Z,14.40
2022-12-01T13:25:36.377Z,14.07
2022-12-01T13:28:07.306Z,13.63
2022-12-01T13:30:39.868Z,14.38
2022-12-01T13:33:08.529Z,13.80
2022-12-01T13:35:38.909Z,13.55
2022-12-01T13:38:22.919Z,14.07
2022-12-01T13:41:12.707Z,13.52
2022-12-01T13:43:53.405Z,14.15
2022-12-01T13:46:27.847Z,13.75
2022-12-01T13:48:58.073Z,13.15
2022-12-01T13:51:26.885Z,12.38
2022-12-01T13:54:28.744Z,12.50
2022-12-01T13:57:08.170Z,12.85
2022-12-01T13:59:41.455Z,13.52
2022-12-01T14:02:19.372Z,12.65
2022-12-01T14:04:47.961Z,12.57
2022-12-01T14:07:27.266Z,12.77
2022-12-01T14:10:15.697Z,13.43
2022-12-01T14:15:42.812Z,11.57
2022-12-01T14:18:48.762Z,12.52
2022-12-01T14:21:18.849Z,12.55
2022-12-01T14:24:07.771Z,12.10
2022-12-01T14:27:16.672Z,10.95
2022-12-01T14:29:52.592Z,10.50
2022-12-01T14:32:29.507Z,9.48
2022-12-01T14:35:07.362Z,10.68
2022-12-01T14:37:51.753Z,8.73
2022-12-01T14:40:31.368Z,8.88
2022-12-01T14:43:18.596Z,9.02
2022-12-01T14:46:07.797Z,9.75
2022-12-01T14:48:46.057Z,9.68
2022-12-01T14:51:27.081Z,8.32
2022-12-01T14:53:59.689Z,9.95
2022-12-01T14:56:30.637Z,10.10
2022-12-01T14:59:15.073Z,9.60
2022-12-01T15:02:39.654Z,8.07
2022-12-01T15:05:35.127Z,8.90
2022-12-01T15:08:40.125Z,9.93
2022-12-01T15:11:21.621Z,9.82
2022-12-01T15:14:11.963Z,8.68
2022-12-01T15:16:43.583Z,9.40
2022-12-01T15:19:35.352Z,8.90
2022-12-01T15:22:13.674Z,8.82
2022-12-01T15:24:42.132Z,10.50
2022-12-01T15:27:39.814Z,9.77
2022-12-01T15:30:21.153Z,9.82
2022-12-01T15:33:04.661Z,9.88
2022-12-01T15:35:34.956Z,10.00
2022-12-01T15:38:17.818Z,9.05
2022-12-01T15:44:02.790Z,9.90
2022-12-01T15:46:39.443Z,9.73
2022-12-01T15:49:23.883Z,9.98
2022-12-01T15:55:31.044Z,10.90
2022-12-01T15:58:22.476Z,11.25
2022-12-01T16:01:44.643Z,11.07
2022-12-01T16:04:41.326Z,11.95
2022-12-01T16:08:13.383Z,10.93
2022-12-01T16:10:46.469Z,10.80
2022-12-01T16:13:48.288Z,9.88
2022-12-01T16:16:41.983Z,9.93
2022-12-01T16:24:01.057Z,10.30
2022-12-01T16:26:39.051Z,12.18
2022-12-01T16:32:45.865Z,12.05
2022-12-01T16:35:31.812Z,13.27
2022-12-01T16:41:41.207Z,11.18
2022-12-01T16:44:28.847Z,13.07
2022-12-01T16:47:21.942Z,10.18
2022-12-01T16:50:04.337Z,11.50
2022-12-01T16:52:44.501Z,11.85
2022-12-01T16:55:39.001Z,12.93
2022-12-01T16:58:11.107Z,10.75
2022-12-01T17:00:48.203Z,12.15
2022-12-01T17:03:22.706Z,12.45
2022-12-01T17:06:07.140Z,13.00
2022-12-01T17:08:37.435Z,13.13
2022-12-01T17:11:09.274Z,13.02
2022-12-01T17:13:40.885Z,12.83
2022-12-01T17:16:16.729Z,14.27
2022-12-01T17:18:52.700Z,17.77
2022-12-01T17:21:23.651Z,13.63
2022-12-01T17:23:52.066Z,13.30
2022-12-01T17:26:30.827Z,13.07
2022-12-01T17:29:00.341Z,12.27
2022-12-01T17:31:29.204Z,12.43
2022-12-01T17:33:57.341Z,12.70
2022-12-01T17:36:25.387Z,12.35
2022-12-01T17:38:57.648Z,10.77
2022-12-01T17:41:32.456Z,9.55
2022-12-01T17:44:03.935Z,10.63
2022-12-01T17:46:32.897Z,9.98
2022-12-01T17:49:00.957Z,10.73
2022-12-01T17:51:29.216Z,10.98
2022-12-01T17:53:57.604Z,10.15
2022-12-01T17:56:26.615Z,12.38
2022-12-01T17:58:54.849Z,12.40
2022-12-01T18:01:29.898Z,11.68
2022-12-01T18:03:59.577Z,10.45
2022-12-01T18:06:28.219Z,10.80
2022-12-01T18:08:57.614Z,10.73
2022-12-01T18:11:25.765Z,12.18
2022-12-01T18:13:55.148Z,13.35
2022-12-01T18:16:26.749Z,13.00
2022-12-01T18:18:55.650Z,16.17
2022-12-01T18:21:25.152Z,16.73
2022-12-01T18:23:55.314Z,17.20
2022-12-01T18:26:24.828Z,17.17
2022-12-01T18:28:57.315Z,17.60
2022-12-01T18:31:27.149Z,15.75
2022-12-01T18:33:57.860Z,15.93
2022-12-01T18:36:27.638Z,17.42
2022-12-01T18:38:55.946Z,17.70
2022-12-01T18:41:24.480Z,16.35
2022-12-01T18:43:53.141Z,15.15
2022-12-01T18:46:23.478Z,15.55
2022-12-01T18:48:59.957Z,15.23
2022-12-01T18:51:38.361Z,15.68
2022-12-01T18:54:08.656Z,16.50
2022-12-01T18:56:37.652Z,16.60
2022-12-01T18:59:09.001Z,15.15
2022-12-01T19:01:41.106Z,14.95
2022-12-01T19:04:12.239Z,15.20
2022-12-01T19:06:46.462Z,15.88
2022-12-01T19:09:17.289Z,15.55
2022-12-01T19:11:46.670Z,20.10
2022-12-01T19:14:17.948Z,16.35
2022-12-01T19:16:47.436Z,15.73
2022-12-01T19:19:17.498Z,15.50
2022-12-01T19:21:46.040Z,16.73
2022-12-01T19:24:14.966Z,16.15
2022-12-01T19:26:43.815Z,19.30
2022-12-01T19:29:15.566Z,17.23
2022-12-01T19:32:56.361Z,17.25
2022-12-01T19:35:45.213Z,15.05
2022-12-01T19:38:17.221Z,17.73
2022-12-01T19:41:01.722Z,16.83
2022-12-01T19:43:33.749Z,16.95
2022-12-01T19:46:25.912Z,17.10
2022-12-01T19:49:19.552Z,17.20
2022-12-01T19:54:51.418Z,17.17
2022-12-01T19:57:35.800Z,22.35
2022-12-01T20:00:18.904Z,22.65
2022-12-01T20:02:55.491Z,22.75
2022-12-01T20:05:24.057Z,20.75
2022-12-01T20:07:54.801Z,20.27
2022-12-01T20:10:28.824Z,22.00
2022-12-01T20:12:59.431Z,19.33
2022-12-01T20:15:29.980Z,19.80
2022-12-01T20:18:06.264Z,17.52
2022-12-01T20:20:44.208Z,20.23
2022-12-01T20:23:27.692Z,24.98
2022-12-01T20:26:06.640Z,23.20
2022-12-01T20:28:54.509Z,25.88
2022-12-01T20:31:30.763Z,23.42
2022-12-01T20:34:04.321Z,24.00
2022-12-01T20:36:36.211Z,25.33
2022-12-01T20:39:47.160Z,26.67
2022-12-01T20:42:19.917Z,32.10
2022-12-01T20:47:29.202Z,26.98
2022-12-01T20:50:08.508Z,27.15
2022-12-01T20:52:41.359Z,26.08
2022-12-01T20:57:52.016Z,27.77
2022-12-01T21:00:26.343Z,26.05
2022-12-01T21:02:58.030Z,25.85
2022-12-01T21:05:33.331Z,25.05
2022-12-01T21:08:52.163Z,27.75
2022-12-01T21:11:19.189Z,27.88
2022-12-01T21:14:06.498Z,27.35
2022-12-01T21:16:36.819Z,24.45
2022-12-01T21:19:16.196Z,26.42
2022-12-01T21:21:44.355Z,25.63
2022-12-01T21:24:17.171Z,24.45
2022-12-01T21:29:28.409Z,20.73
2022-12-01T21:32:01.349Z,24.35
2022-12-01T21:34:30.338Z,23.42
2022-12-01T21:37:01.802Z,24.67
2022-12-01T21:39:31.474Z,21.70
2022-12-01T21:42:13.605Z,20.45
2022-12-01T21:44:41.561Z,22.87
2022-12-01T21:47:23.119Z,23.98
2022-12-01T21:49:53.734Z,22.55
2022-12-01T21:52:25.132Z,24.13
2022-12-01T21:54:53.466Z,23.10
2022-12-01T21:57:42.862Z,22.90
2022-12-01T22:00:35.602Z,20.35
2022-12-01T22:03:25.453Z,20.13
2022-12-01T22:06:27.699Z,23.00
2022-12-01T22:08:49.991Z,22.30
2022-12-01T22:11:20.892Z,19.85
2022-12-01T22:13:56.178Z,21.95
2022-12-01T22:16:31.044Z,21.88
2022-12-01T22:19:00.804Z,20.73
2022-12-01T22:21:41.400Z,21.80
2022-12-01T22:24:40.499Z,20.60
2022-12-01T22:27:22.186Z,19.50
2022-12-01T22:29:54.104Z,19.55
2022-12-01T22:32:37.429Z,19.00
2022-12-01T22:35:35.386Z,19.88
2022-12-01T22:38:25.377Z,20.13
2022-12-01T22:40:57.923Z,20.05
2022-12-01T22:43:40.210Z,19.05
2022-12-01T22:46:32.753Z,18.35
2022-12-01T22:49:18.368Z,17.70
2022-12-01T22:52:10.512Z,19.80
2022-12-01T22:54:51.421Z,19.13
2022-12-01T22:57:37.321Z,17.15
2022-12-01T23:03:23.368Z,17.20
2022-12-01T23:06:10.811Z,19.45
2022-12-01T23:08:44.753Z,19.35
2022-12-01T23:11:58.148Z,17.95
2022-12-01T23:14:38.774Z,20.08
2022-12-01T23:17:13.499Z,20.88
2022-12-01T23:19:42.870Z,25.95
2022-12-01T23:22:12.205Z,24.05
2022-12-01T23:24:40.481Z,23.80
2022-12-01T23:28:00.780Z,25.88
2022-12-01T23:30:11.488Z,25.65
2022-12-01T23:32:41.819Z,28.15
2022-12-01T23:35:32.333Z,27.75
2022-12-01T23:38:16.023Z,23.48
2022-12-01T23:40:46.394Z,22.98
2022-12-01T23:43:19.796Z,23.27
2022-12-01T23:45:58.692Z,24.15
2022-12-01T23:48:36.431Z,23.17
2022-12-01T23:54:33.203Z,23.00
2022-12-01T23:57:18.224Z,23.70
